Řízení letového provozu České republiky  
Aktualizace dat:  06.07.2022 07:45:33 UTC English version
   METEO Zobrazení stránky:  06.07.2022 07:46:42 UTC  
vysvětlivky
METAR EDDB 060720Z 30010KT 9999 FEW035 18/09 Q1021 NOSIG=
METAR EDDC 060720Z AUTO 33006KT 260V030 9999 FEW023 17/11 Q1022 NOSIG=
METAR EDDE 060720Z AUTO 34009KT 310V010 9999 FEW022 SCT047 16/09 Q1024 NOSIG=
METAR EDDF 060720Z 32009G22KT 190V360 9999 FEW030 SCT042 18/09 Q1025 NOSIG=
METAR EDDM 060720Z AUTO VRB03KT CAVOK 20/11 Q1023 NOSIG=
METAR EDDN 060720Z AUTO 31006KT 270V340 CAVOK 20/09 Q1023 NOSIG=
METAR EDDP 060720Z 34008KT 310V030 9999 FEW032 17/09 Q1023 NOSIG=
METAR EDQM 060720Z 01005KT 300V070 CAVOK 15/09 Q1023=
METAR EPBY 060730Z 32008KT 290V350 9999 FEW038 19/09 Q1018=
METAR EPGD 060730Z 25013KT 9999 FEW029 18/10 Q1017=
METAR EPKK 060730Z 31005KT 270V030 9999 SCT020 20/14 Q1018=
METAR EPKT 060730Z 27013KT 9999 SCT007 BKN008 OVC010 16/14 Q1019=
METAR EPLL 060730Z 01008KT 340V040 9999 FEW030 20/12 Q1018=
METAR EPPO 060730Z 29010KT 9999 -TSRA SCT024CB SCT041 18/14 Q1019=
METAR EPRZ 060730Z 31010KT 280V340 9999 BKN013 18/16 Q1016=
METAR EPWA 060730Z 32008KT 9999 BKN013 18/15 Q1017 BECMG SCT015=
METAR EPWR 060730Z 30011KT 9999 FEW017 18/14 Q1020=
METAR LHBP 060730Z 33005KT 280V010 9999 FEW030 23/15 Q1016 NOSIG=
METAR LHSM 060715Z AUTO 36011KT CAVOK 24/14 Q1019 NOSIG=
METAR LKBC NIL
METAR LKCS 060730Z AUTO 32006KT 270V010 9999 FEW024/// SCT034/// 18/13 Q1022=
METAR LKCV 060730Z 29003KT 210V340 CAVOK 17/12 Q1021 NOSIG RMK BLU BLU=
METAR LKKB 060730Z 26008KT 240V310 CAVOK 18/11 Q1021 NOSIG RMK BLU BLU=
METAR LKKU 060731Z 34003KT 9999 SCT029 20/13 Q1019=
METAR LKKV 060730Z 27003KT 220V310 9999 FEW030 16/08 Q1023=
METAR LKLN 060730Z AUTO VRB02KT 9999 SCT072 BKN092 16/12 Q1022=
METAR LKMT 060730Z 03009KT 9999 BKN034 16/14 Q1020 TEMPO 4500 SHRA FEW025CB=
METAR LKNA 060730Z 32013KT 9999 FEW042CB 18/12 Q1021 NOSIG RMK BLU BLU=
METAR LKPD 060730Z 29005KT CAVOK 16/13 Q1021 NOSIG RMK BLU BLU=
SPECI LKPJ 060739Z AUTO 33008KT 300V360 9999 TS BKN089/// 19/14 Q1020=
METAR LKPR 060730Z 28005KT 220V360 9999 FEW030 18/11 Q1022 NOSIG=
METAR LKTB 060730Z 31009KT CAVOK 20/13 Q1020 NOSIG=
METAR LKVO NIL
METAR LOWI 060720Z VRB03KT 9999 FEW025 18/13 Q1023 NOSIG=
METAR LOWL 060720Z AUTO 28010KT 9999 FEW040 20/13 Q1021 NOSIG=
METAR LOWS 060720Z AUTO 15006KT 9999 FEW090 20/14 Q1022 NOSIG=
METAR LOWW 060720Z 34012KT 9999 FEW030 23/14 Q1019 NOSIG=
METAR LZIB 060730Z 31012KT 9999 FEW045 22/12 Q1019 NOSIG=
METAR LZKZ 060730Z 04010KT 9999 SCT025 19/16 Q1016 NOSIG=
METAR LZMC NIL
METAR LZPP 060730Z 36007KT 330V030 CAVOK 21/14 Q1018=
METAR LZSL NIL
METAR LZTT 060730Z 23007KT 180V250 9999 FEW020 SCT038 19/13 Q1017 NOSIG=
METAR LZZI 060730Z 07008KT 9999 FEW033 20/14 Q1019=